Time;durP1;ratioP1;P1;durP2;ratioP2;P2;SDS_P1;SDS_P2;PMS_P1;PMS_P2;Temp;Humidity;BMP_temperature;BMP_pressure;BME280_temperature;BME280_humidity;BME280_pressure;Samples;Min_cycle;Max_cycle;Signal;HPM_P1;HPM_P2
2024/03/18 00:01:55;;;;;;;4.70;3.42;;;;;;;1.51;96.00;149047.78;10444904;28;20051;-74
2024/03/18 00:06:56;;;;;;;4.03;2.80;;;;;;;1.41;96.92;149023.41;10445279;28;20036;-76
2024/03/18 00:11:57;;;;;;;8.80;3.03;;;;;;;1.37;97.41;149011.88;10444195;28;20029;-74
2024/03/18 00:16:57;;;;;;;6.35;3.38;;;;;;;1.06;99.75;148933.69;10444331;28;20072;-75
2024/03/18 00:21:58;;;;;;;4.57;2.58;;;;;;;0.96;100.00;148909.34;10443939;28;20051;-75
2024/03/18 00:27:00;;;;;;;4.78;3.22;;;;;;;0.93;100.00;148902.97;10443502;28;20100;-75
2024/03/18 00:32:01;;;;;;;6.35;3.55;;;;;;;1.00;99.35;148920.88;10444008;28;20033;-75
2024/03/18 00:37:02;;;;;;;6.97;3.05;;;;;;;0.88;100.00;148888.84;10444430;28;20049;-75
2024/03/18 00:42:03;;;;;;;4.63;2.83;;;;;;;0.94;100.00;148904.25;10444518;28;20414;-74
2024/03/18 00:47:04;;;;;;;4.68;3.15;;;;;;;0.67;100.00;148836.38;10444145;28;20079;-76
2024/03/18 00:52:06;;;;;;;5.75;3.38;;;;;;;0.61;100.00;148820.97;10442455;28;20079;-75
2024/03/18 00:57:07;;;;;;;4.32;2.85;;;;;;;0.63;100.00;148827.38;10443450;28;20056;-75
2024/03/18 01:02:08;;;;;;;4.78;4.10;;;;;;;0.75;100.00;148856.81;10441951;28;20048;-75
2024/03/18 01:07:08;;;;;;;6.60;4.07;;;;;;;0.65;100.00;148831.22;10442681;28;20083;-75
2024/03/18 01:12:09;;;;;;;6.35;3.78;;;;;;;0.40;100.00;148769.78;10444371;28;20041;-76
2024/03/18 01:17:10;;;;;;;4.82;3.40;;;;;;;0.43;100.00;148776.16;10443538;28;20048;-75
2024/03/18 01:22:11;;;;;;;4.57;3.35;;;;;;;0.55;100.00;148805.63;10442745;28;20045;-75
2024/03/18 01:27:12;;;;;;;6.75;3.28;;;;;;;0.63;100.00;148826.13;10442647;28;20562;-75
2024/03/18 01:32:13;;;;;;;8.63;2.42;;;;;;;0.71;100.00;148847.91;10441631;28;20041;-76
2024/03/18 01:37:14;;;;;;;5.05;3.35;;;;;;;0.48;100.00;148790.22;10442425;28;20434;-74
2024/03/18 01:42:15;;;;;;;4.90;3.13;;;;;;;0.24;100.00;148728.78;10441433;28;20051;-76
2024/03/18 01:47:16;;;;;;;6.80;3.30;;;;;;;0.46;100.00;148783.84;10441297;28;20416;-74
2024/03/18 01:52:18;;;;;;;4.35;3.13;;;;;;;0.22;100.00;148723.63;10441266;28;20178;-76
2024/03/18 01:57:19;;;;;;;4.85;2.85;;;;;;;0.02;100.00;148672.44;10440789;28;20041;-75
2024/03/18 02:02:20;;;;;;;6.50;3.20;;;;;;;0.06;100.00;148682.69;10424483;28;20552;-74
2024/03/18 02:07:24;;;;;;;4.28;2.40;;;;;;;0.38;100.00;148763.34;10424183;28;20067;-76
2024/03/18 02:12:26;;;;;;;5.90;2.75;;;;;;;0.37;100.00;148760.78;10440778;28;20052;-76
2024/03/18 02:17:27;;;;;;;4.18;3.08;;;;;;;0.25;100.00;148731.31;10440144;28;20070;-75
2024/03/18 02:22:27;;;;;;;4.57;2.92;;;;;;;0.25;100.00;148731.31;10439389;28;20051;-75
2024/03/18 02:27:28;;;;;;;4.72;2.92;;;;;;;0.14;100.00;148703.19;10422755;28;20136;-75
2024/03/18 02:32:31;;;;;;;5.05;3.20;;;;;;;0.27;100.00;148735.16;10438964;28;20037;-75
2024/03/18 02:37:32;;;;;;;4.05;2.92;;;;;;;-0.11;100.00;148641.72;10439746;28;20044;-75
2024/03/18 02:42:39;;;;;;;4.78;3.22;;;;;;;-0.15;100.00;148630.19;10438882;28;20037;-76
2024/03/18 02:47:41;;;;;;;3.40;2.25;;;;;;;-0.09;100.00;148646.88;10439358;28;20048;-75
2024/03/18 02:52:43;;;;;;;4.63;3.35;;;;;;;-0.22;100.00;148612.25;10439080;28;20041;-76
2024/03/18 02:57:44;;;;;;;5.88;3.25;;;;;;;-0.18;100.00;148622.50;10445460;28;20040;-75
2024/03/18 03:02:44;;;;;;;4.47;3.15;;;;;;;-0.36;100.00;148577.72;10447499;28;20039;-75
2024/03/18 03:07:45;;;;;;;3.95;3.55;;;;;;;-0.43;100.00;148559.81;10431809;28;20106;-75
2024/03/18 03:12:46;;;;;;;3.92;3.53;;;;;;;-0.41;100.00;148564.91;10446687;28;20459;-75
2024/03/18 03:17:47;;;;;;;3.97;3.25;;;;;;;-0.42;100.00;148562.38;10447185;28;20131;-75
2024/03/18 03:22:49;;;;;;;4.95;3.58;;;;;;;-0.07;100.00;148650.69;10430813;28;20041;-75
2024/03/18 03:27:49;;;;;;;5.65;3.47;;;;;;;-0.26;100.00;148604.59;10446612;28;20048;-75
2024/03/18 03:32:50;;;;;;;4.30;3.58;;;;;;;-0.32;100.00;148587.94;10430337;28;20518;-76
2024/03/18 03:37:51;;;;;;;3.55;3.00;;;;;;;-0.32;100.00;148587.94;10446416;28;20393;-76
2024/03/18 03:42:52;;;;;;;5.85;3.25;;;;;;;-0.36;100.00;148577.72;10446216;28;20128;-75
2024/03/18 03:47:53;;;;;;;4.00;3.25;;;;;;;-0.36;100.00;148577.72;10446165;28;20128;-76
2024/03/18 03:52:54;;;;;;;5.10;2.90;;;;;;;-0.49;100.00;148545.72;10446313;28;20505;-76
2024/03/18 03:57:55;;;;;;;7.82;3.03;;;;;;;-0.54;100.00;148532.91;10445604;28;20408;-75
2024/03/18 04:02:56;;;;;;;4.55;3.00;;;;;;;-0.51;100.00;148541.88;10444935;28;20037;-76
2024/03/18 04:07:57;;;;;;;5.03;3.00;;;;;;;-0.55;100.00;148531.66;10444550;28;20076;-76
2024/03/18 04:12:58;;;;;;;3.58;3.20;;;;;;;-0.59;100.00;148520.13;10445511;28;20566;-77
2024/03/18 04:17:59;;;;;;;4.40;3.35;;;;;;;-0.57;100.00;148525.28;10428624;28;20060;-77
2024/03/18 04:23:01;;;;;;;5.75;3.80;;;;;;;-0.56;100.00;148527.81;10445453;28;20045;-75
2024/03/18 04:28:07;;;;;;;4.28;3.25;;;;;;;-0.42;100.00;148563.63;10445140;28;20044;-76
2024/03/18 04:33:08;;;;;;;7.93;3.38;;;;;;;-0.33;100.00;148585.41;10444717;28;20048;-75
2024/03/18 04:38:08;;;;;;;4.32;3.35;;;;;;;-0.58;100.00;148523.94;10428155;28;20052;-75
2024/03/18 04:43:09;;;;;;;5.82;3.25;;;;;;;-0.52;100.00;148539.34;10443601;28;20033;-74
2024/03/18 04:48:11;;;;;;;7.57;3.42;;;;;;;-0.52;100.00;148539.34;10443723;28;20090;-75
2024/03/18 04:53:11;;;;;;;3.65;2.97;;;;;;;-0.40;100.00;148567.47;10444005;28;20414;-75
2024/03/18 04:58:12;;;;;;;4.18;3.58;;;;;;;-0.44;100.00;148558.53;10446174;28;20052;-75
2024/03/18 05:03:13;;;;;;;4.25;3.40;;;;;;;-0.70;100.00;148493.28;10444556;28;20504;-75
2024/03/18 05:08:14;;;;;;;3.95;3.40;;;;;;;-0.72;100.00;148488.13;10446455;28;20052;-75
2024/03/18 05:13:15;;;;;;;5.55;3.50;;;;;;;-0.71;100.00;148489.41;10444643;28;20523;-76
2024/03/18 05:18:16;;;;;;;5.03;3.30;;;;;;;-0.76;100.00;148477.91;10442732;28;20135;-75
2024/03/18 05:23:17;;;;;;;3.78;3.05;;;;;;;-0.91;100.00;148439.53;10443654;28;20037;-74
2024/03/18 05:28:17;;;;;;;4.03;2.83;;;;;;;-0.87;100.00;148451.06;10443992;28;20049;-73
2024/03/18 05:33:18;;;;;;;4.43;3.63;;;;;;;-0.78;100.00;148474.09;10443966;28;20450;-74
2024/03/18 05:38:19;;;;;;;3.70;3.15;;;;;;;-0.61;100.00;148516.31;10426374;28;20044;-74
2024/03/18 05:43:20;;;;;;;4.95;3.05;;;;;;;-0.57;100.00;148526.56;10443173;28;20095;-74
2024/03/18 05:48:21;;;;;;;3.67;2.70;;;;;;;-0.70;100.00;148492.00;10443253;28;20171;-75
2024/03/18 05:53:22;;;;;;;4.47;3.45;;;;;;;-0.64;100.00;148508.63;10441700;28;20033;-74
2024/03/18 05:58:22;;;;;;;4.25;3.33;;;;;;;-0.38;100.00;148572.59;10441396;28;20066;-74
2024/03/18 06:03:23;;;;;;;2.85;2.55;;;;;;;-0.39;100.00;148570.06;10425441;28;20098;-74
2024/03/18 06:08:25;;;;;;;4.85;2.83;;;;;;;-0.23;100.00;148610.97;10442232;28;20041;-74
2024/03/18 06:13:26;;;;;;;4.43;3.25;;;;;;;0.04;100.00;148677.53;10425272;28;20393;-74
2024/03/18 06:18:27;;;;;;;5.53;2.60;;;;;;;1.08;98.20;148938.84;10440736;28;20044;-75
2024/03/18 06:23:33;;;;;;;3.72;2.22;;;;;;;1.98;94.59;149167.00;10423672;28;20041;-75
2024/03/18 06:28:35;;;;;;;3.75;2.83;;;;;;;3.09;83.86;149444.09;10442023;28;20424;-75
2024/03/18 06:33:36;;;;;;;5.25;2.65;;;;;;;3.57;79.75;149564.78;10442066;28;20044;-76
2024/03/18 06:38:38;;;;;;;3.55;2.10;;;;;;;3.63;76.74;149580.19;10440234;28;20128;-74
2024/03/18 06:43:39;;;;;;;3.42;2.30;;;;;;;2.98;81.07;149417.16;10441083;28;20087;-75
2024/03/18 06:48:40;;;;;;;3.63;2.00;;;;;;;2.97;81.71;149414.63;10424517;28;20040;-75
2024/03/18 06:53:41;;;;;;;4.10;2.67;;;;;;;2.77;80.90;149364.53;10440741;28;20065;-75
2024/03/18 06:58:42;;;;;;;7.13;2.25;;;;;;;2.58;82.41;149315.81;10439569;28;20068;-75
2024/03/18 07:03:43;;;;;;;3.38;2.22;;;;;;;2.90;81.09;149396.63;10438846;28;20040;-75
2024/03/18 07:08:43;;;;;;;5.20;2.85;;;;;;;2.86;80.31;149387.63;10438784;28;20505;-75
2024/03/18 07:13:44;;;;;;;2.92;2.47;;;;;;;2.21;84.15;149223.41;10422591;28;20056;-75
2024/03/18 07:18:45;;;;;;;3.55;2.20;;;;;;;2.73;83.88;149354.28;10422580;28;20579;-75
2024/03/18 07:23:46;;;;;;;5.22;2.22;;;;;;;2.58;81.78;149315.81;10438596;28;20078;-74
2024/03/18 07:28:46;;;;;;;4.40;2.92;;;;;;;2.69;82.02;149345.28;10440392;28;20055;-76
2024/03/18 07:33:47;;;;;;;3.22;2.38;;;;;;;2.94;82.78;149408.19;10439851;28;20417;-75
2024/03/18 07:38:48;;;;;;;3.60;2.92;;;;;;;3.10;80.61;149446.66;10439900;28;20128;-75
2024/03/18 07:43:49;;;;;;;4.93;3.40;;;;;;;3.10;81.80;149448.00;10446041;28;20104;-75
2024/03/18 07:48:49;;;;;;;5.13;2.65;;;;;;;3.03;79.61;149431.28;10446928;28;20059;-74
2024/03/18 07:53:50;;;;;;;8.57;3.47;;;;;;;3.09;83.77;149444.09;10446985;28;20120;-75
2024/03/18 07:58:51;;;;;;;4.35;2.78;;;;;;;3.29;80.13;149496.75;10446341;28;20033;-76
2024/03/18 08:03:52;;;;;;;6.70;2.97;;;;;;;3.32;81.23;149503.19;10446353;28;20409;-74
2024/03/18 08:08:54;;;;;;;4.28;3.17;;;;;;;3.61;77.77;149576.34;10446062;28;20075;-76
2024/03/18 08:13:54;;;;;;;5.30;3.38;;;;;;;3.94;76.44;149659.84;10428187;28;20040;-75
2024/03/18 08:18:55;;;;;;;4.35;2.75;;;;;;;4.11;77.70;149702.19;10450912;28;20162;-75
2024/03/18 08:23:57;;;;;;;4.47;3.20;;;;;;;4.45;76.03;149788.28;10450163;28;20041;-76
2024/03/18 08:28:59;;;;;;;7.68;3.22;;;;;;;4.65;74.38;149837.09;10450576;28;20045;-75
2024/03/18 08:34:00;;;;;;;4.07;3.15;;;;;;;4.96;72.90;149916.84;10445057;28;20036;-75
2024/03/18 08:39:00;;;;;;;4.43;3.05;;;;;;;5.09;72.74;149948.97;10443793;28;20043;-75
2024/03/18 08:44:01;;;;;;;3.17;2.05;;;;;;;5.21;69.03;149979.78;10443353;28;20120;-75
2024/03/18 08:49:02;;;;;;;2.38;1.50;;;;;;;5.66;63.79;150092.94;10443682;28;20065;-75
2024/03/18 08:54:03;;;;;;;2.00;1.80;;;;;;;5.67;60.30;150094.28;10443591;28;20045;-75
2024/03/18 08:59:04;;;;;;;2.20;1.25;;;;;;;5.99;62.38;150175.38;10444887;28;20045;-75
2024/03/18 09:04:08;;;;;;;2.75;1.77;;;;;;;6.38;59.52;150273.16;10446612;28;20041;-76
2024/03/18 09:09:11;;;;;;;2.25;1.92;;;;;;;6.79;59.59;150378.69;10412764;28;20060;-76
2024/03/18 09:14:13;;;;;;;2.42;1.92;;;;;;;6.68;59.37;150350.34;10446434;28;20483;-77
2024/03/18 09:19:14;;;;;;;3.47;2.13;;;;;;;7.05;58.00;150443.09;10445450;28;20063;-75
2024/03/18 09:24:15;;;;;;;4.07;2.28;;;;;;;6.95;59.06;150417.28;10444406;28;20124;-76
2024/03/18 09:29:15;;;;;;;2.05;1.60;;;;;;;7.22;57.55;150485.59;10442476;28;20037;-75
2024/03/18 09:34:17;;;;;;;3.25;1.77;;;;;;;7.19;56.72;150479.13;10442533;28;20109;-76
2024/03/18 09:39:17;;;;;;;1.98;1.40;;;;;;;7.62;52.62;150586.06;10442150;28;20053;-75
2024/03/18 09:44:19;;;;;;;3.08;1.00;;;;;;;7.61;50.95;150583.44;10441531;28;20501;-75
2024/03/18 09:49:25;;;;;;;2.47;1.20;;;;;;;7.80;51.42;150632.44;10441667;28;20041;-76
2024/03/18 09:54:26;;;;;;;1.80;1.25;;;;;;;8.34;53.74;150770.28;10440436;28;20071;-75
2024/03/18 09:59:27;;;;;;;3.00;1.77;;;;;;;8.31;52.12;150762.56;10440391;28;20041;-75
2024/03/18 10:04:28;;;;;;;3.08;2.05;;;;;;;8.07;53.98;150700.72;10439546;28;20509;-75
2024/03/18 10:09:29;;;;;;;3.47;1.45;;;;;;;8.24;51.99;150743.25;10439718;28;20040;-75
2024/03/18 10:14:30;;;;;;;2.05;1.65;;;;;;;8.80;51.25;150885.06;10440470;28;20044;-75
2024/03/18 10:19:31;;;;;;;1.88;1.10;;;;;;;8.75;47.63;150873.47;10423262;28;20045;-75
2024/03/18 10:24:32;;;;;;;3.05;1.85;;;;;;;9.09;45.82;150959.88;10439325;28;20401;-75
2024/03/18 10:29:34;;;;;;;2.45;1.40;;;;;;;8.86;45.84;150900.56;10438491;28;20049;-75
2024/03/18 10:34:38;;;;;;;2.92;1.80;;;;;;;9.06;47.17;150950.84;10438741;28;20396;-73
2024/03/18 10:39:47;;;;;;;2.17;1.35;;;;;;;9.23;43.90;150994.69;10438938;28;20095;-75
2024/03/18 10:45:18;;;;;;;3.30;1.70;;;;;;;9.77;46.24;151131.44;10439127;28;20041;-75
2024/03/18 10:50:21;;;;;;;3.25;2.22;;;;;;;10.18;46.58;151233.41;10274761;28;20124;-75
2024/03/18 10:55:23;;;;;;;2.05;1.40;;;;;;;10.33;42.05;151273.47;10273645;28;20084;-75
2024/03/18 11:00:25;;;;;;;2.90;1.85;;;;;;;9.70;43.56;151112.13;10275231;28;20121;-74
2024/03/18 11:05:29;;;;;;;2.95;1.60;;;;;;;9.89;45.02;151161.13;10274502;28;20150;-75
2024/03/18 11:10:32;;;;;;;3.15;1.80;;;;;;;10.62;44.63;151345.75;10274087;28;20408;-74
2024/03/18 11:15:33;;;;;;;2.80;1.67;;;;;;;11.23;43.99;151499.47;10272992;28;20054;-74
2024/03/18 11:21:03;;;;;;;3.33;1.70;;;;;;;10.53;44.63;151322.53;10281122;28;20105;-74
2024/03/18 11:26:09;;;;;;;2.72;1.80;;;;;;;10.91;45.57;151419.38;10261424;28;20050;-75
2024/03/18 11:31:15;;;;;;;2.10;1.42;;;;;;;10.50;43.55;151314.81;10322173;28;20391;-75
2024/03/18 11:36:17;;;;;;;2.60;1.65;;;;;;;11.01;42.80;151445.19;10321262;28;20058;-75
2024/03/18 11:41:18;;;;;;;2.88;1.80;;;;;;;11.30;42.35;151517.56;10322165;28;20073;-75
2024/03/18 11:46:19;;;;;;;2.05;1.30;;;;;;;10.99;41.51;151440.06;10322116;28;20066;-75
2024/03/18 11:51:20;;;;;;;2.53;1.70;;;;;;;11.26;43.38;151507.22;10322008;28;20091;-75
2024/03/18 11:56:21;;;;;;;2.20;1.17;;;;;;;11.09;42.16;151464.59;10322859;28;20157;-75
2024/03/18 12:01:29;;;;;;;2.75;1.42;;;;;;;10.59;41.19;151338.03;10391191;28;20049;-75
2024/03/18 12:06:35;;;;;;;1.95;1.45;;;;;;;11.16;43.58;151482.69;10446789;28;20083;-76
2024/03/18 12:11:36;;;;;;;2.33;1.37;;;;;;;11.22;44.16;151496.88;10445657;28;20033;-75
2024/03/18 12:16:40;;;;;;;2.38;1.60;;;;;;;10.74;44.91;151376.75;10445895;28;20041;-75
2024/03/18 12:21:41;;;;;;;3.88;1.98;;;;;;;10.10;46.16;151214.06;10448676;28;20041;-77
2024/03/18 12:32:04;;;;;;;2.90;1.85;;;;;;;9.83;49.05;151145.66;10447357;28;20405;-76
2024/03/18 12:37:07;;;;;;;2.42;1.88;;;;;;;9.73;46.87;151121.13;10448833;28;20033;-76
2024/03/18 12:42:12;;;;;;;2.85;1.98;;;;;;;9.53;49.13;151069.53;10448967;28;20041;-77
2024/03/18 12:47:13;;;;;;;2.50;1.58;;;;;;;9.34;49.25;151023.09;10447014;28;20091;-76
2024/03/18 12:52:14;;;;;;;2.80;2.03;;;;;;;9.49;51.06;151060.50;10448272;28;20082;-76
2024/03/18 12:57:15;;;;;;;2.28;1.63;;;;;;;9.36;49.01;151026.94;10448090;28;20049;-76
2024/03/18 13:02:16;;;;;;;2.72;1.50;;;;;;;9.49;47.60;151060.50;10449944;28;20464;-76
2024/03/18 13:07:17;;;;;;;3.80;2.15;;;;;;;9.37;48.41;151029.53;10432784;28;20091;-76
2024/03/18 13:12:18;;;;;;;1.65;1.33;;;;;;;9.30;48.03;151012.78;10450238;28;20052;-76
2024/03/18 13:17:24;;;;;;;1.90;1.35;;;;;;;9.27;47.83;151005.03;10447914;28;20412;-76
2024/03/18 13:22:28;;;;;;;2.33;1.53;;;;;;;9.22;48.31;150992.13;10449989;28;20481;-78
2024/03/18 13:27:29;;;;;;;1.15;1.05;;;;;;;9.28;47.42;151006.31;10446488;28;20045;-77
2024/03/18 13:32:29;;;;;;;1.67;1.40;;;;;;;9.26;48.50;151001.16;10446723;28;20048;-75
2024/03/18 13:37:33;;;;;;;2.92;1.50;;;;;;;9.33;48.22;151019.19;10446431;28;20045;-77
2024/03/18 13:42:33;;;;;;;1.77;1.30;;;;;;;9.38;48.24;151030.81;10444203;28;20033;-73
2024/03/18 13:47:35;;;;;;;1.42;1.30;;;;;;;9.24;48.03;150997.25;10444146;28;20037;-74
2024/03/18 13:52:36;;;;;;;2.08;1.20;;;;;;;9.29;48.50;151008.88;10425735;28;20048;-74
2024/03/18 13:57:37;;;;;;;3.25;1.50;;;;;;;9.02;47.39;150941.81;10424636;28;20401;-74
2024/03/18 14:02:37;;;;;;;1.55;1.30;;;;;;;9.07;48.14;150953.41;10441126;28;20045;-74
2024/03/18 14:07:38;;;;;;;1.65;1.40;;;;;;;8.92;47.61;150916.03;10441949;28;20557;-74
2024/03/18 14:12:39;;;;;;;1.88;1.40;;;;;;;8.91;47.41;150913.47;10441633;28;20452;-75
2024/03/18 14:17:43;;;;;;;1.85;1.02;;;;;;;8.88;46.78;150905.72;10442129;28;20104;-74
2024/03/18 14:22:44;;;;;;;2.28;1.42;;;;;;;8.95;46.43;150923.78;10440830;28;20044;-75
2024/03/18 14:27:54;;;;;;;0.90;0.88;;;;;;;8.73;45.49;150867.06;10441289;28;20044;-74
2024/03/18 14:32:54;;;;;;;1.70;1.08;;;;;;;8.67;45.11;150852.84;10440664;28;20448;-74
2024/03/18 14:37:56;;;;;;;1.00;0.90;;;;;;;8.57;44.45;150828.34;10439855;28;20041;-75
2024/03/18 14:42:57;;;;;;;1.55;0.93;;;;;;;8.59;44.10;150832.25;10439534;28;20071;-75
2024/03/18 14:48:09;;;;;;;2.08;1.52;;;;;;;8.56;42.73;150825.78;10440570;28;20389;-74
2024/03/18 14:53:11;;;;;;;1.38;0.82;;;;;;;8.61;43.64;150836.09;10430320;28;20041;-74
2024/03/18 14:58:12;;;;;;;1.02;0.70;;;;;;;8.66;41.88;150848.97;10450634;28;20045;-73
2024/03/18 15:03:13;;;;;;;1.10;0.90;;;;;;;8.44;42.26;150793.53;10451382;28;20041;-74
2024/03/18 15:08:14;;;;;;;1.83;0.75;;;;;;;8.47;41.71;150801.28;10450270;28;20064;-74
2024/03/18 15:13:17;;;;;;;2.33;1.30;;;;;;;8.48;41.85;150803.84;10448377;28;20040;-75
2024/03/18 15:18:17;;;;;;;1.27;0.90;;;;;;;8.63;41.01;150842.50;10447443;28;20400;-75
2024/03/18 15:23:27;;;;;;;1.17;0.70;;;;;;;8.58;39.41;150830.91;10446982;28;20045;-75
2024/03/18 15:28:28;;;;;;;0.88;0.63;;;;;;;8.25;41.62;150747.09;10447361;28;20052;-74
2024/03/18 15:33:29;;;;;;;0.73;0.60;;;;;;;8.28;40.53;150753.56;10447527;28;20036;-74
2024/03/18 15:38:30;;;;;;;1.08;0.57;;;;;;;8.15;41.27;150721.34;10447658;28;20041;-73
2024/03/18 15:43:31;;;;;;;3.97;0.73;;;;;;;8.17;41.88;150725.19;10447318;28;20112;-75
2024/03/18 15:48:32;;;;;;;0.63;0.60;;;;;;;8.05;42.56;150696.81;10448817;28;20045;-74
2024/03/18 15:53:35;;;;;;;0.68;0.57;;;;;;;8.14;41.85;150718.72;10432268;28;20497;-74
2024/03/18 15:58:37;;;;;;;0.70;0.57;;;;;;;8.03;41.83;150691.69;10447486;28;20052;-75
2024/03/18 16:03:39;;;;;;;1.25;0.70;;;;;;;8.14;43.93;150718.72;10449561;28;20067;-74
2024/03/18 16:08:40;;;;;;;0.68;0.65;;;;;;;8.08;45.46;150704.56;10449138;28;20041;-74
2024/03/18 16:13:41;;;;;;;1.73;0.98;;;;;;;8.01;46.04;150686.53;10433958;28;20087;-73
2024/03/18 16:18:41;;;;;;;1.13;0.75;;;;;;;7.80;46.77;150632.44;10446558;28;20052;-74
2024/03/18 16:23:42;;;;;;;1.83;1.10;;;;;;;7.70;47.06;150606.63;10445449;28;20041;-74
2024/03/18 16:28:43;;;;;;;1.27;1.00;;;;;;;7.76;46.62;150623.41;10429922;28;20128;-75
2024/03/18 16:33:44;;;;;;;1.13;0.70;;;;;;;7.68;47.93;150601.50;10446917;28;20159;-73
2024/03/18 16:38:45;;;;;;;1.40;0.75;;;;;;;7.55;46.19;150570.56;10444912;28;20041;-72
2024/03/18 16:43:46;;;;;;;1.48;0.60;;;;;;;7.40;46.20;150530.66;10446252;28;20266;-74
2024/03/18 16:48:48;;;;;;;0.52;0.50;;;;;;;7.36;46.08;150520.34;10427151;28;20052;-75
2024/03/18 16:53:49;;;;;;;0.82;0.57;;;;;;;7.20;45.29;150480.41;10446735;28;20051;-74
2024/03/18 16:58:50;;;;;;;1.00;0.50;;;;;;;7.05;46.56;150444.38;10445159;28;20075;-74
2024/03/18 17:03:51;;;;;;;0.60;0.60;;;;;;;7.13;45.30;150462.34;10445184;28;20064;-74
2024/03/18 17:08:52;;;;;;;0.55;0.50;;;;;;;6.83;46.55;150387.72;10447185;28;20124;-74
2024/03/18 17:13:53;;;;;;;1.90;0.70;;;;;;;6.88;47.29;150400.59;10477175;28;20570;-75
2024/03/18 17:18:54;;;;;;;0.70;0.50;;;;;;;6.60;48.81;150329.78;10485797;28;20527;-75
2024/03/18 17:23:55;;;;;;;0.95;0.60;;;;;;;6.51;49.53;150306.63;10484497;28;20408;-75
2024/03/18 17:28:58;;;;;;;1.05;0.80;;;;;;;6.46;49.97;150295.03;10468382;28;20045;-74
2024/03/18 17:33:59;;;;;;;0.60;0.45;;;;;;;6.41;50.65;150280.84;10485828;28;20041;-75
2024/03/18 17:39:00;;;;;;;1.60;0.90;;;;;;;6.16;51.66;150219.09;10468468;28;20500;-74
2024/03/18 17:44:01;;;;;;;2.22;0.80;;;;;;;6.19;51.90;150226.81;10484531;28;20450;-74
2024/03/18 17:49:02;;;;;;;2.65;0.70;;;;;;;6.14;52.10;150213.94;10485088;28;20067;-74
2024/03/18 17:54:03;;;;;;;1.38;0.70;;;;;;;5.97;53.10;150171.47;10485925;28;20044;-75
2024/03/18 17:59:08;;;;;;;1.88;0.80;;;;;;;5.77;53.69;150121.28;10467452;28;20135;-75
2024/03/18 18:04:09;;;;;;;1.15;0.80;;;;;;;5.72;53.92;150107.13;10453089;28;20098;-75
2024/03/18 18:09:11;;;;;;;1.80;0.88;;;;;;;5.76;53.74;150118.72;10469430;28;20044;-74
2024/03/18 18:14:13;;;;;;;2.20;0.85;;;;;;;5.74;53.63;150112.25;10483951;28;20141;-74
2024/03/18 18:19:14;;;;;;;1.48;0.80;;;;;;;5.61;54.38;150078.81;10482373;28;20048;-74
2024/03/18 18:24:15;;;;;;;0.80;0.80;;;;;;;5.64;54.63;150086.56;10483286;28;20047;-75
2024/03/18 18:29:15;;;;;;;1.20;0.70;;;;;;;5.40;55.88;150026.06;10465785;28;20567;-75
2024/03/18 18:34:17;;;;;;;8.07;1.00;;;;;;;5.23;56.25;149983.69;10467513;28;20063;-75
2024/03/18 18:39:18;;;;;;;1.00;0.80;;;;;;;5.12;56.57;149956.66;10465925;28;20048;-74
2024/03/18 18:44:21;;;;;;;0.93;0.77;;;;;;;5.07;57.27;149945.09;10466140;28;20102;-75
2024/03/18 18:49:21;;;;;;;2.55;0.98;;;;;;;5.09;57.27;149947.66;10483756;28;20040;-76
2024/03/18 18:54:22;;;;;;;2.88;1.02;;;;;;;4.78;57.94;149871.84;10485477;28;20033;-75
2024/03/18 18:59:26;;;;;;;1.30;1.00;;;;;;;4.64;58.59;149834.53;10467796;28;20045;-75
2024/03/18 19:04:27;;;;;;;2.15;0.88;;;;;;;4.66;58.99;149839.69;10453056;28;20041;-74
2024/03/18 19:09:29;;;;;;;2.30;0.85;;;;;;;4.77;58.27;149869.22;10442465;28;20528;-75
2024/03/18 19:14:30;;;;;;;2.13;1.08;;;;;;;4.58;58.92;149820.41;10442607;28;20485;-75
2024/03/18 19:19:31;;;;;;;1.23;1.00;;;;;;;4.57;59.41;149816.56;10442683;28;20052;-74
2024/03/18 19:24:33;;;;;;;1.98;1.00;;;;;;;4.30;60.31;149749.75;10442770;28;20408;-74
2024/03/18 19:29:34;;;;;;;2.72;1.58;;;;;;;4.29;60.13;149747.16;10425024;28;20044;-74
2024/03/18 19:34:34;;;;;;;2.28;1.30;;;;;;;4.32;60.03;149754.88;10441353;28;20449;-75
2024/03/18 19:39:36;;;;;;;2.30;1.38;;;;;;;4.09;60.72;149695.78;10429445;28;20045;-74
2024/03/18 19:44:37;;;;;;;2.22;1.15;;;;;;;4.11;61.02;149702.19;10432392;28;20139;-75
2024/03/18 19:49:39;;;;;;;1.90;1.30;;;;;;;3.67;62.33;149591.72;10447556;28;20040;-75
2024/03/18 19:54:41;;;;;;;2.65;1.38;;;;;;;3.73;62.80;149607.16;10448670;28;20060;-75
2024/03/18 19:59:42;;;;;;;2.50;1.20;;;;;;;3.52;63.57;149553.22;10447826;28;20508;-75
2024/03/18 20:04:43;;;;;;;3.55;1.50;;;;;;;3.52;63.29;149553.22;10447232;28;20045;-74
2024/03/18 20:09:44;;;;;;;2.47;1.27;;;;;;;3.58;64.03;149567.34;10446828;28;20527;-75
2024/03/18 20:14:45;;;;;;;4.15;1.65;;;;;;;3.73;64.01;149607.16;10446363;28;20396;-74
2024/03/18 20:19:46;;;;;;;3.45;1.33;;;;;;;3.53;65.02;149557.06;10448720;28;20049;-74
2024/03/18 20:24:47;;;;;;;2.05;0.85;;;;;;;3.29;65.42;149496.75;10446854;28;20045;-75
2024/03/18 20:29:48;;;;;;;1.48;1.10;;;;;;;3.35;65.98;149510.84;10430541;28;20052;-75
2024/03/18 20:34:49;;;;;;;2.15;1.20;;;;;;;3.36;66.10;149513.41;10447141;28;20045;-75
2024/03/18 20:39:49;;;;;;;1.10;1.00;;;;;;;3.35;66.32;149510.84;10447831;28;20497;-74
2024/03/18 20:44:50;;;;;;;2.85;1.65;;;;;;;3.42;65.95;149527.56;10447369;28;20041;-75
2024/03/18 20:49:51;;;;;;;2.00;0.93;;;;;;;3.28;67.12;149494.19;10446032;28;20041;-76
2024/03/18 20:54:53;;;;;;;3.40;1.48;;;;;;;3.30;67.16;149498.03;10446307;28;20120;-75
2024/03/18 20:59:53;;;;;;;1.48;0.85;;;;;;;2.92;68.83;149403.06;10447145;28;20102;-74
2024/03/18 21:04:54;;;;;;;1.85;1.05;;;;;;;2.92;69.17;149403.06;10416460;28;20583;-73
2024/03/18 21:09:55;;;;;;;2.30;0.90;;;;;;;2.66;70.30;149337.63;10452192;28;20555;-74
2024/03/18 21:14:56;;;;;;;2.10;1.42;;;;;;;2.65;71.09;149335.00;10436458;28;20087;-74
2024/03/18 21:19:57;;;;;;;2.40;1.55;;;;;;;2.48;71.71;149291.44;10448681;28;20037;-74
2024/03/18 21:24:58;;;;;;;1.65;1.40;;;;;;;2.37;72.21;149264.47;10448378;28;20051;-74
2024/03/18 21:29:59;;;;;;;2.00;1.50;;;;;;;2.21;73.16;149223.41;10448396;28;20049;-75
2024/03/18 21:35:00;;;;;;;2.53;1.45;;;;;;;2.32;73.29;149251.66;10416541;28;20052;-75
2024/03/18 21:40:01;;;;;;;2.50;1.50;;;;;;;2.24;74.01;149232.41;10447227;28;20044;-74
2024/03/18 21:45:03;;;;;;;1.92;1.42;;;;;;;2.20;74.34;149222.13;10430918;28;20065;-73
2024/03/18 21:50:06;;;;;;;2.40;1.65;;;;;;;2.11;74.76;149199.06;10444578;28;20094;-74
2024/03/18 21:55:06;;;;;;;2.53;1.65;;;;;;;1.87;75.20;149138.81;10428088;28;20124;-75
2024/03/18 22:00:09;;;;;;;2.65;1.60;;;;;;;1.73;76.17;149102.91;10443584;28;20045;-74
2024/03/18 22:05:10;;;;;;;2.75;1.75;;;;;;;1.80;76.54;149119.56;10443142;28;20052;-73
2024/03/18 22:10:11;;;;;;;2.42;1.80;;;;;;;2.00;75.98;149172.13;10427327;28;20094;-74
2024/03/18 22:15:12;;;;;;;2.67;1.88;;;;;;;1.69;76.78;149093.94;10442175;28;20049;-74
2024/03/18 22:20:13;;;;;;;2.25;1.90;;;;;;;1.52;77.56;149051.63;10441779;28;20127;-73
2024/03/18 22:25:14;;;;;;;4.38;1.80;;;;;;;1.60;77.95;149070.84;10425440;28;20428;-75
2024/03/18 22:30:15;;;;;;;2.55;2.15;;;;;;;1.66;77.14;149084.94;10425545;28;20515;-74
2024/03/18 22:35:16;;;;;;;3.10;2.20;;;;;;;1.35;78.43;149008.03;10424699;28;20112;-74
2024/03/18 22:40:17;;;;;;;2.45;1.73;;;;;;;1.46;78.90;149034.94;10440220;28;20072;-74
2024/03/18 22:45:17;;;;;;;2.53;2.00;;;;;;;1.50;78.43;149046.47;10439574;28;20045;-74
2024/03/18 22:50:19;;;;;;;3.22;2.20;;;;;;;1.34;78.65;149005.47;10439159;28;20077;-74
2024/03/18 22:55:19;;;;;;;3.17;2.78;;;;;;;1.31;78.88;148996.50;10440063;28;20045;-75
2024/03/18 23:00:21;;;;;;;3.03;2.72;;;;;;;1.15;79.60;148956.75;10440588;28;20041;-75
2024/03/18 23:05:21;;;;;;;6.30;3.13;;;;;;;1.08;80.55;148940.13;10439330;28;20045;-74
2024/03/18 23:10:25;;;;;;;3.95;2.92;;;;;;;1.07;80.67;148936.28;10439260;28;20040;-74
2024/03/18 23:15:26;;;;;;;4.38;2.83;;;;;;;0.84;81.22;148879.94;10446049;28;20404;-74
2024/03/18 23:20:27;;;;;;;3.80;2.65;;;;;;;0.81;82.44;148870.94;10447897;28;20037;-73